Terminal Aerodrome Forecast
Issued by NWS Jackson, MS

Home | Current Version | Previous Version | Text Only | Print | Product List | Glossary On
Versions: 1 2 3 4 5 6 7 8 9 10 11 12 13 14 15 16 17 18 19 20 21
000
FTUS44 KJAN 270547
TAFHBG
TAF
KHBG 270547Z 2706/2806 18007KT P6SM VCSH FEW008 BKN018 OVC040
     FM271500 21011G18KT P6SM VCSH BKN015
     FM271800 21014G20KT P6SM VCTS SCT025 BKN035CB
     FM280000 18006KT P6SM SCT050 SCT100=

USA.gov is the U.S. government's official web portal to all federal, state and local government web resources and services.